Barcarena, Brazil
Current Conditions -  °F | °C
As of 2:00 PM on Thursday 30 Oct 2014 (Local Time) from SBBE Reporting Station
Broken Clouds Broken Clouds  
Wind Chill: 90°   Ceiling: 4000
Heat Index: 96°   Visibility: 6mi
Dew Point: 72°   Wind: 7mph
Humidity: 55%   Direction: 70°ENE
Pressure: 29.77"   Gusts: NA
Location:  1.51°S, 48.63°W
Report Text: SBBE 301700Z 07006KT 9999 BKN040 32/22 Q1008
Loading
Personal Weather Stations






























Interactive Weather Map
Tropical Storm Tracking
New forecast layout! Learn more

10-Day Weather Forecast

Advertisements
Track Severe Weather on mobile